Time;durP1;ratioP1;P1;durP2;ratioP2;P2;SDS_P1;SDS_P2;PMS_P1;PMS_P2;Temp;Humidity;BMP_temperature;BMP_pressure;BME280_temperature;BME280_humidity;BME280_pressure;Samples;Min_cycle;Max_cycle;Signal;HPM_P1;HPM_P2
2023/10/01 00:00:42;;;;;;;13.52;8.05;;;19.70;90.10;;;;;;5064166;28;20046;-54
2023/10/01 00:03:08;;;;;;;13.00;7.80;;;19.70;90.10;;;;;;5062858;28;20036;-55
2023/10/01 00:05:34;;;;;;;12.95;8.15;;;19.70;90.10;;;;;;5047840;28;20038;-54
2023/10/01 00:08:01;;;;;;;12.70;7.55;;;19.70;90.20;;;;;;5064932;28;20044;-54
2023/10/01 00:10:26;;;;;;;9.60;7.47;;;19.70;90.20;;;;;;5031169;28;20037;-55
2023/10/01 00:12:54;;;;;;;12.07;8.13;;;19.60;90.20;;;;;;5064989;28;20029;-54
2023/10/01 00:15:21;;;;;;;13.70;8.23;;;19.60;90.30;;;;;;5064563;28;20038;-55
2023/10/01 00:17:48;;;;;;;13.90;7.85;;;19.60;90.30;;;;;;5064543;28;20489;-54
2023/10/01 00:22:44;;;;;;;12.18;7.50;;;19.60;90.40;;;;;;5032363;28;20032;-54
2023/10/01 00:25:10;;;;;;;13.35;7.25;;;19.50;90.40;;;;;;5047797;28;20045;-54
2023/10/01 00:27:36;;;;;;;12.57;7.72;;;19.50;90.50;;;;;;5031496;28;20030;-54
2023/10/01 00:30:02;;;;;;;14.60;8.80;;;19.50;90.40;;;;;;5048225;28;20041;-55
2023/10/01 00:32:29;;;;;;;12.15;7.45;;;19.50;90.50;;;;;;5064394;28;20026;-54
2023/10/01 00:34:58;;;;;;;11.48;7.40;;;19.50;90.50;;;;;;5047440;28;20041;-54
2023/10/01 00:37:24;;;;;;;10.77;7.78;;;19.50;90.50;;;;;;5064486;28;20022;-54
2023/10/01 00:39:54;;;;;;;13.45;8.32;;;19.50;90.50;;;;;;5064233;28;20060;-54
2023/10/01 00:42:21;;;;;;;12.65;8.68;;;19.50;90.60;;;;;;5063080;28;20026;-52
2023/10/01 00:44:47;;;;;;;12.48;8.80;;;19.50;90.90;;;;;;5064213;28;20045;-54
2023/10/01 00:47:13;;;;;;;12.85;7.85;;;19.40;90.60;;;;;;5061147;28;20033;-55
2023/10/01 00:49:39;;;;;;;13.18;7.75;;;19.40;90.70;;;;;;5060939;28;20452;-54
2023/10/01 00:52:10;;;;;;;12.68;8.02;;;19.40;90.70;;;;;;5044247;28;20026;-55
2023/10/01 00:54:35;;;;;;;11.70;7.50;;;19.40;90.80;;;;;;5043677;28;20056;-54
2023/10/01 00:57:01;;;;;;;12.20;7.97;;;19.30;90.80;;;;;;5028767;28;20053;-55
2023/10/01 00:59:27;;;;;;;13.70;8.45;;;19.30;90.80;;;;;;5060801;28;20239;-54
2023/10/01 01:01:53;;;;;;;11.88;8.05;;;19.30;90.90;;;;;;5029221;28;20049;-55
2023/10/01 01:04:22;;;;;;;13.13;8.10;;;19.20;90.90;;;;;;5027396;28;20030;-55
2023/10/01 01:06:48;;;;;;;12.70;7.68;;;19.30;91.00;;;;;;5028813;28;20030;-54
2023/10/01 01:09:15;;;;;;;14.52;7.90;;;19.20;91.00;;;;;;5043809;28;20045;-54
2023/10/01 01:11:40;;;;;;;14.20;8.07;;;19.20;91.10;;;;;;5060344;28;20393;-55
2023/10/01 01:14:07;;;;;;;12.43;8.40;;;19.20;91.10;;;;;;5060684;28;20036;-54
2023/10/01 01:16:33;;;;;;;11.93;7.88;;;19.10;91.20;;;;;;5060333;28;20030;-55
2023/10/01 01:19:00;;;;;;;13.30;8.40;;;19.10;91.20;;;;;;5060508;28;20060;-55
2023/10/01 01:21:25;;;;;;;13.00;7.70;;;19.10;91.20;;;;;;5027201;28;20089;-54
2023/10/01 01:23:53;;;;;;;13.98;8.32;;;19.10;91.30;;;;;;5060319;28;20076;-54
2023/10/01 01:26:21;;;;;;;15.27;8.18;;;19.10;91.40;;;;;;5043277;28;20026;-55
2023/10/01 01:28:47;;;;;;;12.00;7.78;;;19.10;91.40;;;;;;5028387;28;20034;-55
2023/10/01 01:31:13;;;;;;;12.23;7.90;;;19.00;91.40;;;;;;5026865;28;20029;-55
2023/10/01 01:33:44;;;;;;;11.82;8.13;;;19.00;91.50;;;;;;5059925;28;20025;-55
2023/10/01 01:36:10;;;;;;;14.30;8.43;;;19.00;91.50;;;;;;5028272;28;20405;-54
2023/10/01 01:38:37;;;;;;;18.52;8.32;;;19.00;91.50;;;;;;5060002;28;20063;-54
2023/10/01 01:41:03;;;;;;;13.60;8.65;;;18.90;91.50;;;;;;5059817;28;20030;-54
2023/10/01 01:43:32;;;;;;;12.05;7.88;;;18.90;91.50;;;;;;5059901;28;20022;-54
2023/10/01 01:46:00;;;;;;;13.38;8.00;;;18.90;91.60;;;;;;5042956;28;20045;-54
2023/10/01 01:51:01;;;;;;;12.65;7.57;;;18.90;91.60;;;;;;5059047;28;20120;-54
2023/10/01 01:53:34;;;;;;;15.05;8.50;;;18.90;91.60;;;;;;5042658;28;20106;-54
2023/10/01 01:56:04;;;;;;;13.95;8.68;;;18.80;91.60;;;;;;5028175;28;20527;-55
2023/10/01 01:58:30;;;;;;;14.27;8.40;;;18.80;91.70;;;;;;5058811;28;20026;-54
2023/10/01 02:01:08;;;;;;;13.35;7.90;;;18.90;91.70;;;;;;5027535;28;20431;-55
2023/10/01 02:03:40;;;;;;;12.50;8.18;;;18.80;91.70;;;;;;5027921;28;20025;-54
2023/10/01 02:06:06;;;;;;;12.65;7.55;;;18.80;91.80;;;;;;5059394;28;20033;-54
2023/10/01 02:08:47;;;;;;;12.32;7.97;;;18.80;91.90;;;;;;5059046;28;20072;-54
2023/10/01 02:11:13;;;;;;;13.23;7.80;;;18.80;91.90;;;;;;5056360;28;20034;-54
2023/10/01 02:13:41;;;;;;;13.73;7.93;;;18.70;91.90;;;;;;5059332;28;20382;-54
2023/10/01 02:19:11;;;;;;;13.27;8.23;;;18.70;92.00;;;;;;5027406;28;20024;-54
2023/10/01 02:21:42;;;;;;;12.93;8.68;;;18.60;92.10;;;;;;5054090;28;20030;-54
2023/10/01 02:24:37;;;;;;;12.85;8.20;;;18.60;92.10;;;;;;5058398;28;20030;-55
2023/10/01 02:27:04;;;;;;;13.35;7.75;;;18.60;92.10;;;;;;5027209;28;20108;-55
2023/10/01 02:29:32;;;;;;;12.98;8.25;;;18.50;92.20;;;;;;5042331;28;20057;-55
2023/10/01 02:31:58;;;;;;;12.48;8.13;;;18.50;92.20;;;;;;5027357;28;20052;-55
2023/10/01 02:34:24;;;;;;;15.05;7.57;;;18.50;92.30;;;;;;5025788;28;20065;-55
2023/10/01 02:36:50;;;;;;;14.90;8.13;;;18.50;92.20;;;;;;5059147;28;20026;-55
2023/10/01 02:39:27;;;;;;;13.25;8.38;;;18.50;92.20;;;;;;5042313;28;20093;-55
2023/10/01 02:44:35;;;;;;;15.90;8.18;;;18.50;92.30;;;;;;5054766;28;20081;-54
2023/10/01 02:47:20;;;;;;;12.48;7.45;;;18.40;92.30;;;;;;5025574;28;20094;-55
2023/10/01 02:49:49;;;;;;;14.65;7.82;;;18.40;92.40;;;;;;5053689;28;20113;-54
2023/10/01 02:52:35;;;;;;;13.55;7.75;;;18.30;92.40;;;;;;5026976;28;20041;-55
2023/10/01 02:55:00;;;;;;;11.93;7.32;;;18.40;92.50;;;;;;5039904;28;20026;-54
2023/10/01 02:57:26;;;;;;;12.48;8.00;;;18.40;92.50;;;;;;5026543;28;20477;-54
2023/10/01 03:02:38;;;;;;;14.32;7.38;;;18.30;92.60;;;;;;5026774;28;20093;-54
2023/10/01 03:05:14;;;;;;;12.63;7.53;;;18.30;92.60;;;;;;5058179;28;20092;-54
2023/10/01 03:07:40;;;;;;;9.35;7.15;;;18.30;92.60;;;;;;5026756;28;20026;-55
2023/10/01 03:10:15;;;;;;;14.45;8.10;;;18.20;92.60;;;;;;5024602;28;20060;-55
2023/10/01 03:12:42;;;;;;;13.27;8.35;;;18.20;92.60;;;;;;5040400;28;20112;-54
2023/10/01 03:17:55;;;;;;;14.32;7.97;;;18.20;92.70;;;;;;5041091;28;20413;-55
2023/10/01 03:26:08;;;;;;;13.45;7.85;;;18.10;92.80;;;;;;5026612;28;20038;-55
2023/10/01 03:31:46;;;;;;;12.63;8.00;;;18.10;92.80;;;;;;5044387;28;20053;-54
2023/10/01 03:34:28;;;;;;;13.15;8.20;;;18.00;92.80;;;;;;5042880;28;20101;-55
2023/10/01 03:36:58;;;;;;;12.85;7.90;;;18.00;92.80;;;;;;5032472;28;20048;-55
2023/10/01 03:39:25;;;;;;;12.13;8.02;;;18.00;92.90;;;;;;5056951;28;20469;-55
2023/10/01 03:47:19;;;;;;;11.45;7.30;;;17.90;93.00;;;;;;5026160;28;20041;-54
2023/10/01 03:49:45;;;;;;;12.32;7.55;;;17.90;93.00;;;;;;5026166;28;20034;-55
2023/10/01 03:52:14;;;;;;;12.82;7.72;;;17.90;93.00;;;;;;5026111;28;20133;-54
2023/10/01 03:55:26;;;;;;;12.57;7.88;;;17.90;93.00;;;;;;5057153;28;20085;-54
2023/10/01 03:57:29;;;;;;;13.27;7.55;;;17.90;93.00;;;;;;5023043;28;20041;-55
2023/10/01 03:59:57;;;;;;;12.63;8.25;;;17.90;93.10;;;;;;5057649;28;20033;-55
2023/10/01 04:05:21;;;;;;;13.00;7.77;;;17.80;93.10;;;;;;5038890;28;20037;-54
2023/10/01 04:07:47;;;;;;;11.52;7.55;;;17.80;93.20;;;;;;5026072;28;20045;-54
2023/10/01 04:10:14;;;;;;;13.38;8.15;;;17.80;93.10;;;;;;5026151;28;20093;-54
2023/10/01 04:12:44;;;;;;;15.15;8.50;;;17.80;93.20;;;;;;5040868;28;20026;-54
2023/10/01 04:15:10;;;;;;;14.90;7.85;;;17.80;93.20;;;;;;5057417;28;20033;-54
2023/10/01 04:17:36;;;;;;;11.70;7.65;;;17.70;93.20;;;;;;5025837;28;20030;-54
2023/10/01 04:20:12;;;;;;;13.20;7.70;;;17.70;93.20;;;;;;5025912;28;20037;-54
2023/10/01 04:22:40;;;;;;;14.65;8.32;;;17.70;93.30;;;;;;5027326;28;20041;-54
2023/10/01 04:25:10;;;;;;;11.55;7.35;;;17.60;93.40;;;;;;5029672;28;20129;-54
2023/10/01 04:27:41;;;;;;;13.38;7.95;;;17.60;93.30;;;;;;5060481;28;20042;-54
2023/10/01 04:30:10;;;;;;;11.68;7.70;;;17.60;93.30;;;;;;5060706;28;20038;-54
2023/10/01 04:32:36;;;;;;;11.50;7.90;;;17.60;93.30;;;;;;5029455;28;20056;-54
2023/10/01 04:35:12;;;;;;;14.90;8.20;;;17.60;93.40;;;;;;5029322;28;20029;-54
2023/10/01 04:37:40;;;;;;;12.20;7.72;;;17.60;93.40;;;;;;5059332;28;20030;-54
2023/10/01 04:40:31;;;;;;;12.25;7.93;;;17.60;93.40;;;;;;5060279;28;20026;-54
2023/10/01 04:42:52;;;;;;;14.60;8.57;;;17.60;93.40;;;;;;5055658;28;20026;-54
2023/10/01 04:45:24;;;;;;;13.38;8.18;;;17.50;93.50;;;;;;5044199;28;20041;-54
2023/10/01 04:47:55;;;;;;;12.13;7.82;;;17.50;93.60;;;;;;5059605;28;20026;-54
2023/10/01 04:50:24;;;;;;;17.48;8.10;;;17.50;93.60;;;;;;5060026;28;20128;-54
2023/10/01 04:52:49;;;;;;;11.32;7.63;;;17.50;93.60;;;;;;5059975;28;20026;-55
2023/10/01 04:55:15;;;;;;;13.25;8.68;;;17.50;94.00;;;;;;5060677;28;20403;-54
2023/10/01 04:57:41;;;;;;;12.82;7.88;;;17.50;93.70;;;;;;5060836;28;20032;-55
2023/10/01 05:00:10;;;;;;;15.35;8.15;;;17.40;93.70;;;;;;5028804;28;20060;-54
2023/10/01 05:02:37;;;;;;;13.80;8.00;;;17.40;93.70;;;;;;5060045;28;20085;-54
2023/10/01 05:05:12;;;;;;;14.98;7.65;;;17.40;93.80;;;;;;5028881;28;20034;-54
2023/10/01 05:07:37;;;;;;;13.70;7.60;;;17.40;93.80;;;;;;5043288;28;20108;-55
2023/10/01 05:10:07;;;;;;;12.40;7.57;;;17.40;93.80;;;;;;5028648;28;20066;-54
2023/10/01 05:12:34;;;;;;;13.63;8.00;;;17.40;93.80;;;;;;5027365;28;20026;-54
2023/10/01 05:15:01;;;;;;;16.00;8.70;;;17.40;93.90;;;;;;5028746;28;20029;-54
2023/10/01 05:17:30;;;;;;;12.73;7.85;;;17.30;93.80;;;;;;5060205;28;20030;-54
2023/10/01 05:19:58;;;;;;;13.73;8.15;;;17.30;93.80;;;;;;5027225;28;20042;-55
2023/10/01 05:22:24;;;;;;;11.90;7.75;;;17.30;93.90;;;;;;5059847;28;20018;-54
2023/10/01 05:24:50;;;;;;;12.38;8.13;;;17.30;93.90;;;;;;5026817;28;20478;-54
2023/10/01 05:27:18;;;;;;;14.65;8.23;;;17.30;93.90;;;;;;5026938;28;20072;-54
2023/10/01 05:29:45;;;;;;;12.27;8.00;;;17.30;93.90;;;;;;5043003;28;20050;-54
2023/10/01 05:32:12;;;;;;;12.35;7.75;;;17.30;93.80;;;;;;5043475;28;20022;-54
2023/10/01 05:34:45;;;;;;;10.73;7.63;;;17.30;93.90;;;;;;5059679;28;20117;-54
2023/10/01 05:37:24;;;;;;;15.05;8.32;;;17.20;93.90;;;;;;5057953;28;20025;-54
2023/10/01 05:39:55;;;;;;;12.75;7.95;;;17.20;94.00;;;;;;5042221;28;20026;-54
2023/10/01 05:42:28;;;;;;;12.57;8.65;;;17.20;94.00;;;;;;5028132;28;20026;-55
2023/10/01 05:44:55;;;;;;;13.93;8.13;;;17.10;94.00;;;;;;5028568;28;20498;-54
2023/10/01 05:47:22;;;;;;;13.00;7.70;;;17.10;94.00;;;;;;5028735;28;20018;-54
2023/10/01 05:49:53;;;;;;;12.40;7.95;;;17.10;94.10;;;;;;5028162;28;20052;-54
2023/10/01 05:52:20;;;;;;;12.38;8.23;;;17.10;94.10;;;;;;5058587;28;20026;-54
2023/10/01 05:54:52;;;;;;;17.90;8.15;;;17.10;94.10;;;;;;5042940;28;20022;-54
2023/10/01 05:57:23;;;;;;;12.30;8.23;;;17.10;94.10;;;;;;5028220;28;20026;-54
2023/10/01 05:59:56;;;;;;;10.88;8.10;;;17.10;94.10;;;;;;5042190;28;20038;-54
2023/10/01 06:02:47;;;;;;;11.27;7.72;;;17.10;94.20;;;;;;5058355;28;20025;-54
2023/10/01 06:05:32;;;;;;;14.45;8.20;;;17.00;94.10;;;;;;5054081;28;20040;-54
2023/10/01 06:07:58;;;;;;;12.10;7.13;;;17.10;94.20;;;;;;5027804;28;20601;-54
2023/10/01 06:10:26;;;;;;;13.25;8.00;;;17.00;94.20;;;;;;5027710;28;20046;-54
2023/10/01 06:12:54;;;;;;;11.32;6.88;;;17.00;94.20;;;;;;5027548;28;20385;-54
2023/10/01 06:15:20;;;;;;;13.65;7.55;;;17.00;94.20;;;;;;5027586;28;20030;-54
2023/10/01 06:17:49;;;;;;;11.48;7.70;;;16.90;94.20;;;;;;5059211;28;20022;-54
2023/10/01 06:20:24;;;;;;;11.77;7.70;;;17.00;94.30;;;;;;5059316;28;20069;-54
2023/10/01 06:22:49;;;;;;;12.30;7.50;;;17.00;94.30;;;;;;5057047;28;20050;-54
2023/10/01 06:25:15;;;;;;;12.93;7.82;;;17.00;94.30;;;;;;5059268;28;20053;-54
2023/10/01 06:27:41;;;;;;;12.70;7.90;;;17.00;94.30;;;;;;5059159;28;20041;-54
2023/10/01 06:30:08;;;;;;;13.73;7.68;;;17.00;94.30;;;;;;5042407;28;20468;-55
2023/10/01 06:32:34;;;;;;;13.05;7.70;;;17.00;94.30;;;;;;5058556;28;20520;-54
2023/10/01 06:35:02;;;;;;;13.40;7.88;;;17.00;94.30;;;;;;5027215;28;20038;-54
2023/10/01 06:37:50;;;;;;;11.45;7.32;;;16.90;94.30;;;;;;5025739;28;20038;-55
2023/10/01 06:40:31;;;;;;;12.60;7.88;;;16.90;94.40;;;;;;5027107;28;20421;-54
2023/10/01 06:42:58;;;;;;;11.18;7.60;;;16.90;94.40;;;;;;5040395;28;20030;-54
2023/10/01 06:45:38;;;;;;;13.90;8.30;;;16.90;94.40;;;;;;5041269;28;20030;-54
2023/10/01 06:48:14;;;;;;;12.05;7.53;;;16.90;94.50;;;;;;5027091;28;20034;-54
2023/10/01 06:50:40;;;;;;;13.10;7.78;;;16.90;94.50;;;;;;5056992;28;20029;-54
2023/10/01 06:53:09;;;;;;;13.15;7.85;;;16.90;94.50;;;;;;5042241;28;20042;-54
2023/10/01 06:55:36;;;;;;;12.07;7.72;;;16.90;94.50;;;;;;5058599;28;20037;-54
2023/10/01 06:58:06;;;;;;;12.80;7.68;;;16.90;94.50;;;;;;5041741;28;20053;-54
2023/10/01 07:00:35;;;;;;;14.60;8.63;;;16.90;94.60;;;;;;5057462;28;20148;-54
2023/10/01 07:03:18;;;;;;;11.68;7.88;;;16.90;94.60;;;;;;5057427;28;20030;-54
2023/10/01 07:05:51;;;;;;;12.07;7.65;;;16.80;94.70;;;;;;5025319;28;20041;-55
2023/10/01 07:08:18;;;;;;;13.82;8.35;;;16.80;94.70;;;;;;5026861;28;20099;-54
2023/10/01 07:10:46;;;;;;;11.65;7.53;;;16.90;94.80;;;;;;5041587;28;20076;-54
2023/10/01 07:13:15;;;;;;;15.30;8.25;;;16.90;94.70;;;;;;5026590;28;20045;-54
2023/10/01 07:15:43;;;;;;;12.15;8.15;;;16.90;94.80;;;;;;5026368;28;20050;-54
2023/10/01 07:18:19;;;;;;;14.23;8.10;;;16.90;94.80;;;;;;5025078;28;20033;-55
2023/10/01 07:20:49;;;;;;;10.50;7.32;;;16.90;94.80;;;;;;5055511;28;20156;-54
2023/10/01 07:23:15;;;;;;;13.63;8.00;;;16.90;94.90;;;;;;5057331;28;20126;-54
2023/10/01 07:25:43;;;;;;;13.05;8.30;;;16.80;94.90;;;;;;5058269;28;20105;-55
2023/10/01 07:28:12;;;;;;;11.55;7.93;;;16.90;94.90;;;;;;5057604;28;20037;-54
2023/10/01 07:30:45;;;;;;;12.38;8.20;;;16.90;94.80;;;;;;5026021;28;20034;-54
2023/10/01 07:33:17;;;;;;;13.80;8.40;;;16.90;94.90;;;;;;5057862;28;20097;-54
2023/10/01 07:35:44;;;;;;;14.52;8.68;;;16.90;94.90;;;;;;5056741;28;20038;-54
2023/10/01 07:38:13;;;;;;;13.55;8.57;;;16.90;95.00;;;;;;5058027;28;20026;-54
2023/10/01 07:43:23;;;;;;;13.77;8.50;;;16.90;95.10;;;;;;5053144;28;20049;-54
2023/10/01 07:45:55;;;;;;;15.20;9.25;;;16.90;95.10;;;;;;5041261;28;20041;-54
2023/10/01 07:48:31;;;;;;;12.30;8.50;;;16.90;95.10;;;;;;5042051;28;20482;-54
2023/10/01 07:51:03;;;;;;;;;;;16.90;95.10;;;;;;5041607;28;20048;-55
2023/10/01 07:53:32;;;;;;;13.73;8.02;;;16.90;95.10;;;;;;5026245;28;19910;-55
2023/10/01 07:56:02;;;;;;;14.20;9.05;;;17.00;95.10;;;;;;5057409;28;20110;-54
2023/10/01 08:04:05;;;;;;;13.15;8.98;;;16.90;95.50;;;;;;5048633;28;20056;-54
2023/10/01 08:06:31;;;;;;;15.10;8.90;;;17.00;96.10;;;;;;5028387;28;20214;-54
2023/10/01 08:08:58;;;;;;;15.65;9.60;;;16.90;96.40;;;;;;5026441;28;20076;-55
2023/10/01 08:14:09;;;;;;;12.15;8.82;;;16.90;97.00;;;;;;5028643;28;20036;-54
2023/10/01 08:16:51;;;;;;;15.82;10.60;;;16.80;97.40;;;;;;5028531;28;20026;-54
2023/10/01 08:19:20;;;;;;;20.48;10.10;;;16.80;97.60;;;;;;5029424;28;20041;-54
2023/10/01 08:21:50;;;;;;;16.27;9.80;;;16.90;97.70;;;;;;5028391;28;20034;-54
2023/10/01 08:24:19;;;;;;;16.55;10.25;;;16.90;97.80;;;;;;5029514;28;20057;-54
2023/10/01 08:26:57;;;;;;;18.80;10.30;;;16.90;98.00;;;;;;5028061;28;20030;-54
2023/10/01 08:29:59;;;;;;;20.17;10.45;;;16.90;98.40;;;;;;5028297;28;20026;-54
2023/10/01 08:32:15;;;;;;;21.90;10.02;;;16.90;98.30;;;;;;5028708;28;20026;-55
2023/10/01 08:37:31;;;;;;;21.45;10.68;;;17.00;98.60;;;;;;5029273;28;20121;-54
2023/10/01 08:39:57;;;;;;;28.20;11.10;;;17.00;98.40;;;;;;5012101;28;20041;-54
2023/10/01 08:42:28;;;;;;;20.75;10.45;;;17.00;98.50;;;;;;5029052;28;20033;-54
2023/10/01 08:45:03;;;;;;;29.63;11.02;;;17.00;98.40;;;;;;5029232;28;20385;-54
2023/10/01 08:47:36;;;;;;;25.38;11.73;;;17.10;98.30;;;;;;5027618;28;20056;-54
2023/10/01 08:50:19;;;;;;;30.67;11.52;;;17.10;98.60;;;;;;5027578;28;20034;-54
2023/10/01 08:58:15;;;;;;;34.00;12.80;;;17.20;99.60;;;;;;5027551;28;20030;-55
2023/10/01 09:00:52;;;;;;;46.55;13.55;;;17.20;99.90;;;;;;5027456;28;20026;-54
2023/10/01 09:03:34;;;;;;;55.33;13.55;;;17.20;99.90;;;;;;5027491;28;20026;-55
2023/10/01 09:06:03;;;;;;;56.17;14.75;;;17.20;99.90;;;;;;5025493;28;20038;-54
2023/10/01 09:08:45;;;;;;;48.33;15.40;;;17.20;99.90;;;;;;5026183;28;20109;-54
2023/10/01 09:11:13;;;;;;;47.70;14.60;;;17.20;99.90;;;;;;5027340;28;20090;-54
2023/10/01 09:14:14;;;;;;;58.75;16.17;;;17.30;99.90;;;;;;5027189;28;20026;-54
2023/10/01 09:16:42;;;;;;;67.45;17.17;;;17.30;99.90;;;;;;5027766;28;20072;-54
2023/10/01 09:22:04;;;;;;;65.10;17.70;;;17.40;99.90;;;;;;5027355;28;20110;-54
2023/10/01 09:24:39;;;;;;;79.20;16.67;;;17.40;99.90;;;;;;5026849;28;20042;-54
2023/10/01 09:27:24;;;;;;;56.97;16.38;;;17.50;99.90;;;;;;5011474;28;20099;-54
2023/10/01 09:30:23;;;;;;;69.82;17.75;;;17.50;99.90;;;;;;5026767;28;20044;-54
2023/10/01 09:32:54;;;;;;;67.68;17.73;;;17.50;99.90;;;;;;5026745;28;20501;-54
2023/10/01 09:35:30;;;;;;;72.72;17.98;;;17.60;99.90;;;;;;5026753;28;20036;-54
2023/10/01 09:38:27;;;;;;;86.50;18.80;;;17.60;99.90;;;;;;5026859;28;20041;-54
2023/10/01 09:40:54;;;;;;;85.60;16.67;;;17.70;99.90;;;;;;5025797;28;20066;-54
2023/10/01 09:43:24;;;;;;;80.00;16.70;;;17.70;99.90;;;;;;5029844;28;20486;-54
2023/10/01 09:45:51;;;;;;;71.95;17.10;;;17.70;99.90;;;;;;5010949;28;20030;-54
2023/10/01 09:48:29;;;;;;;80.57;17.98;;;17.70;99.90;;;;;;5031082;28;21430;-54
2023/10/01 09:51:13;;;;;;;75.43;16.55;;;17.80;99.90;;;;;;5024263;28;20106;-54
2023/10/01 09:53:51;;;;;;;103.13;19.48;;;17.80;99.90;;;;;;5025306;28;20018;-54
2023/10/01 09:56:27;;;;;;;63.95;16.42;;;17.80;99.90;;;;;;5025537;28;20104;-54
2023/10/01 09:58:59;;;;;;;79.15;17.02;;;17.90;99.90;;;;;;5009497;28;20025;-54
2023/10/01 10:01:29;;;;;;;94.28;18.13;;;17.90;99.90;;;;;;5041824;28;20030;-54
2023/10/01 10:03:57;;;;;;;62.78;16.83;;;18.00;99.90;;;;;;5042200;28;20034;-54
2023/10/01 10:06:25;;;;;;;76.00;17.85;;;18.00;99.90;;;;;;5042366;28;20025;-54
2023/10/01 10:09:04;;;;;;;100.75;19.80;;;18.00;99.90;;;;;;5024801;28;20438;-54
2023/10/01 10:11:37;;;;;;;63.90;17.23;;;18.10;99.90;;;;;;5006004;28;20033;-55
2023/10/01 10:14:29;;;;;;;67.15;16.27;;;18.10;99.90;;;;;;5030685;28;20477;-54
2023/10/01 10:16:58;;;;;;;78.82;17.52;;;18.10;99.90;;;;;;5022792;28;20072;-54
2023/10/01 10:19:30;;;;;;;110.20;20.45;;;18.20;99.90;;;;;;5009204;28;20094;-54
2023/10/01 10:24:31;;;;;;;57.03;16.30;;;18.20;99.90;;;;;;5026206;28;20038;-54
2023/10/01 10:27:09;;;;;;;65.47;16.60;;;18.20;99.70;;;;;;5023785;28;20056;-54
2023/10/01 10:29:47;;;;;;;67.38;17.00;;;18.30;99.80;;;;;;5057287;28;20053;-54
2023/10/01 10:32:13;;;;;;;85.63;18.98;;;18.30;99.80;;;;;;5058826;28;20030;-55
2023/10/01 10:34:49;;;;;;;88.38;18.15;;;18.30;99.80;;;;;;5025657;28;20117;-54
2023/10/01 10:37:37;;;;;;;69.45;17.05;;;18.40;99.60;;;;;;5038299;28;20048;-54
2023/10/01 10:40:13;;;;;;;74.93;17.33;;;18.40;99.40;;;;;;5026134;28;20088;-54
2023/10/01 10:42:47;;;;;;;90.60;19.10;;;18.40;99.20;;;;;;5025293;28;20394;-54
2023/10/01 10:45:20;;;;;;;81.35;18.10;;;18.50;99.10;;;;;;5026068;28;20049;-54
2023/10/01 10:50:49;;;;;;;100.15;19.35;;;18.60;98.80;;;;;;5023638;28;20041;-54
2023/10/01 10:53:21;;;;;;;69.32;18.00;;;18.60;98.90;;;;;;5023206;28;20474;-54
2023/10/01 10:56:02;;;;;;;74.20;16.98;;;18.70;98.80;;;;;;5024933;28;20105;-54
2023/10/01 10:59:13;;;;;;;93.45;17.75;;;18.70;98.90;;;;;;5025201;28;20052;-54
2023/10/01 11:01:44;;;;;;;87.82;18.33;;;18.80;99.20;;;;;;5021255;28;20034;-54
2023/10/01 11:04:10;;;;;;;79.32;17.45;;;18.90;98.70;;;;;;5008286;28;20086;-54
2023/10/01 11:07:01;;;;;;;81.13;17.63;;;18.90;98.40;;;;;;5022330;28;20037;-54
2023/10/01 11:09:27;;;;;;;87.82;18.88;;;18.90;98.10;;;;;;5022053;28;20038;-55
2023/10/01 11:11:58;;;;;;;89.60;20.25;;;19.00;98.20;;;;;;5025464;28;20057;-54
2023/10/01 11:14:25;;;;;;;74.50;18.08;;;19.10;98.30;;;;;;5026277;28;20046;-54
2023/10/01 11:16:50;;;;;;;104.35;21.13;;;19.10;98.20;;;;;;5025900;28;20025;-54
2023/10/01 11:19:17;;;;;;;77.82;18.48;;;19.10;98.20;;;;;;5022474;28;20037;-54
2023/10/01 11:21:56;;;;;;;94.13;18.80;;;19.10;98.30;;;;;;5024922;28;20026;-54
2023/10/01 11:24:25;;;;;;;96.38;18.85;;;19.20;98.20;;;;;;5024747;28;20029;-54
2023/10/01 11:27:25;;;;;;;122.28;21.67;;;19.20;98.10;;;;;;5025544;28;20109;-54
2023/10/01 11:30:19;;;;;;;105.75;22.05;;;19.30;98.40;;;;;;5020008;28;20057;-54
2023/10/01 11:35:35;;;;;;;75.80;18.33;;;19.40;98.10;;;;;;5033169;28;20033;-54
2023/10/01 11:38:08;;;;;;;129.23;23.13;;;19.40;98.10;;;;;;5005273;28;20080;-55
2023/10/01 11:43:27;;;;;;;79.07;17.98;;;19.50;97.90;;;;;;5025062;28;20041;-54
2023/10/01 11:46:19;;;;;;;93.53;18.87;;;19.60;97.80;;;;;;5010024;28;20042;-54
2023/10/01 11:48:57;;;;;;;148.65;25.17;;;19.70;97.70;;;;;;5018145;28;20299;-54
2023/10/01 11:52:02;;;;;;;77.22;18.10;;;19.70;97.60;;;;;;5036126;28;20030;-54
2023/10/01 11:54:44;;;;;;;96.90;20.63;;;19.70;97.40;;;;;;5021058;28;20026;-54
2023/10/01 11:57:22;;;;;;;147.05;25.48;;;19.80;97.40;;;;;;5021296;28;20037;-54
2023/10/01 11:59:55;;;;;;;116.70;20.40;;;19.90;97.40;;;;;;5021039;28;20109;-55
2023/10/01 12:02:25;;;;;;;106.13;20.77;;;19.90;97.40;;;;;;5003946;28;20029;-54
2023/10/01 12:04:59;;;;;;;87.43;19.90;;;19.90;97.40;;;;;;5019487;28;20038;-54
2023/10/01 12:07:27;;;;;;;85.03;19.33;;;20.00;97.20;;;;;;5019589;28;20030;-54
2023/10/01 12:09:55;;;;;;;138.80;23.13;;;20.00;97.10;;;;;;5018859;28;20072;-55
2023/10/01 12:12:25;;;;;;;123.43;21.80;;;20.10;97.10;;;;;;5020728;28;20022;-54
2023/10/01 12:14:54;;;;;;;119.70;20.30;;;20.20;97.00;;;;;;5018570;28;20065;-55
2023/10/01 12:17:24;;;;;;;126.30;21.85;;;20.30;96.90;;;;;;5020043;28;20026;-54
2023/10/01 12:19:53;;;;;;;110.85;20.70;;;20.30;96.90;;;;;;5017479;28;20038;-55
2023/10/01 12:22:24;;;;;;;158.90;24.70;;;20.40;96.50;;;;;;5030461;28;20069;-55
2023/10/01 12:24:56;;;;;;;117.45;22.50;;;20.40;96.50;;;;;;5007126;28;20168;-55
2023/10/01 12:27:37;;;;;;;132.40;23.67;;;20.50;96.30;;;;;;5008894;28;20037;-55
2023/10/01 12:30:11;;;;;;;132.27;23.67;;;20.50;96.10;;;;;;5013837;28;20077;-55
2023/10/01 12:32:41;;;;;;;144.63;25.98;;;20.60;95.90;;;;;;5045225;28;20022;-55
2023/10/01 12:35:27;;;;;;;168.40;26.27;;;20.60;95.80;;;;;;5048011;28;20397;-55
2023/10/01 12:38:05;;;;;;;125.28;23.55;;;20.70;95.70;;;;;;5036582;28;20037;-55
2023/10/01 12:40:36;;;;;;;99.65;21.30;;;20.80;95.40;;;;;;5033281;28;20034;-54
2023/10/01 12:45:52;;;;;;;114.60;21.25;;;20.90;94.70;;;;;;5024043;28;20037;-55
2023/10/01 12:48:20;;;;;;;142.02;23.65;;;20.90;94.60;;;;;;5004985;28;20052;-55
2023/10/01 12:51:03;;;;;;;115.32;23.13;;;21.00;94.30;;;;;;5026865;28;20034;-55
2023/10/01 12:53:58;;;;;;;133.70;22.65;;;21.00;94.30;;;;;;5036644;28;20103;-55
2023/10/01 12:56:44;;;;;;;99.82;20.55;;;21.10;93.90;;;;;;5028024;28;20038;-55
2023/10/01 12:59:18;;;;;;;146.70;24.80;;;21.10;93.90;;;;;;5019259;28;20033;-55
2023/10/01 13:01:50;;;;;;;161.35;25.17;;;21.20;93.70;;;;;;5022216;28;20041;-55
2023/10/01 13:04:23;;;;;;;119.40;21.55;;;21.20;93.70;;;;;;5026293;28;20060;-55
2023/10/01 13:06:52;;;;;;;145.23;24.65;;;21.30;93.70;;;;;;5025232;28;20022;-55
2023/10/01 13:12:17;;;;;;;108.65;20.73;;;21.30;93.70;;;;;;5026052;28;20080;-55
2023/10/01 13:15:14;;;;;;;119.05;23.42;;;21.40;93.60;;;;;;5020528;28;20026;-55
2023/10/01 13:17:43;;;;;;;91.10;20.58;;;21.40;93.50;;;;;;5031780;28;20065;-55
2023/10/01 13:20:25;;;;;;;127.22;21.10;;;21.40;93.60;;;;;;5037948;28;20034;-55
2023/10/01 13:22:52;;;;;;;114.15;19.20;;;21.40;93.40;;;;;;5050729;28;20049;-54
2023/10/01 13:25:23;;;;;;;92.82;20.20;;;21.40;93.30;;;;;;5023760;28;20041;-54
2023/10/01 13:28:01;;;;;;;118.53;20.05;;;21.40;93.20;;;;;;5025461;28;20030;-55
2023/10/01 13:31:03;;;;;;;110.60;19.92;;;21.50;93.20;;;;;;5022307;28;20034;-55
2023/10/01 13:33:23;;;;;;;122.18;21.50;;;21.50;92.80;;;;;;5023151;28;20060;-55
2023/10/01 13:35:57;;;;;;;98.32;19.33;;;21.60;92.90;;;;;;5035486;28;20113;-52
2023/10/01 13:38:27;;;;;;;146.65;22.30;;;21.60;92.70;;;;;;5041291;28;20034;-52
2023/10/01 14:11:06;;;;;;;117.35;19.42;;;22.20;90.80;;;;;;5025553;28;20544;-52
2023/10/01 14:13:41;;;;;;;91.03;19.65;;;22.30;90.60;;;;;;5041272;28;20070;-52
2023/10/01 14:16:22;;;;;;;84.75;19.35;;;22.30;90.50;;;;;;5029599;28;20030;-52
2023/10/01 14:18:54;;;;;;;113.13;21.90;;;22.30;90.40;;;;;;5033063;28;20113;-52
2023/10/01 14:21:27;;;;;;;104.72;20.00;;;22.30;90.40;;;;;;5038788;28;20030;-52
2023/10/01 14:23:57;;;;;;;136.43;23.95;;;22.40;90.40;;;;;;5034819;28;20213;-52
2023/10/01 14:26:33;;;;;;;146.65;23.38;;;22.40;90.50;;;;;;5043382;28;20030;-52
2023/10/01 14:28:59;;;;;;;121.95;24.08;;;22.50;90.60;;;;;;5023510;28;20494;-52
2023/10/01 14:34:09;;;;;;;114.07;22.27;;;22.50;90.40;;;;;;5022586;28;20080;-52
2023/10/01 14:36:39;;;;;;;118.93;20.85;;;22.60;90.20;;;;;;5024011;28;20033;-52
2023/10/01 14:39:09;;;;;;;142.20;21.88;;;22.70;90.10;;;;;;5035793;28;20041;-52